createdAt,value
2018-12-14T00:01:33.259Z,7.36
2018-12-14T00:04:09.063Z,7.45
2018-12-14T00:06:43.403Z,7.48
2018-12-14T00:09:16.272Z,7.43
2018-12-14T00:11:47.099Z,7.41
2018-12-14T00:14:20.247Z,7.42
2018-12-14T00:16:51.936Z,7.44
2018-12-14T00:19:22.736Z,7.33
2018-12-14T00:21:53.465Z,7.36
2018-12-14T00:24:24.305Z,7.29
2018-12-14T00:26:55.288Z,7.39
2018-12-14T00:29:26.704Z,7.42
2018-12-14T00:31:57.839Z,7.31
2018-12-14T00:34:29.054Z,7.19
2018-12-14T00:36:59.813Z,7.23
2018-12-14T00:39:30.967Z,7.18
2018-12-14T00:42:03.437Z,7.11
2018-12-14T00:44:34.234Z,7.08
2018-12-14T00:47:08.127Z,6.88
2018-12-14T00:49:39.399Z,6.80
2018-12-14T00:52:10.203Z,6.86
2018-12-14T00:54:40.995Z,6.88
2018-12-14T00:57:11.906Z,6.79
2018-12-14T00:59:42.689Z,6.88
2018-12-14T01:02:18.560Z,7.02
2018-12-14T01:04:49.343Z,6.99
2018-12-14T01:07:20.043Z,6.93
2018-12-14T01:09:50.751Z,6.96
2018-12-14T01:12:21.403Z,6.90
2018-12-14T01:14:52.076Z,6.77
2018-12-14T01:17:22.715Z,6.84
2018-12-14T01:19:53.433Z,6.81
2018-12-14T01:22:24.145Z,6.65
2018-12-14T01:24:54.872Z,6.83
2018-12-14T01:27:25.534Z,6.76
2018-12-14T01:29:56.251Z,6.81
2018-12-14T01:32:27.022Z,6.77
2018-12-14T01:34:58.008Z,6.87
2018-12-14T01:37:28.727Z,6.92
2018-12-14T01:39:59.473Z,6.96
2018-12-14T01:42:30.139Z,7.02
2018-12-14T01:45:00.900Z,6.96
2018-12-14T01:47:32.803Z,7.09
2018-12-14T01:50:05.150Z,7.12
2018-12-14T01:52:36.039Z,7.17
2018-12-14T01:55:06.835Z,7.11
2018-12-14T01:57:37.767Z,7.14
2018-12-14T02:00:08.782Z,7.23
2018-12-14T02:02:40.374Z,7.23
2018-12-14T02:05:11.078Z,7.19
2018-12-14T02:07:41.809Z,6.96
2018-12-14T02:10:13.187Z,7.00
2018-12-14T02:12:43.894Z,7.06
2018-12-14T02:15:14.546Z,7.07
2018-12-14T02:17:45.230Z,7.16
2018-12-14T02:20:15.877Z,7.14
2018-12-14T02:22:46.619Z,7.11
2018-12-14T02:25:17.313Z,7.16
2018-12-14T02:27:48.834Z,7.24
2018-12-14T02:30:30.795Z,7.12
2018-12-14T02:33:05.421Z,7.03
2018-12-14T02:35:36.120Z,7.11
2018-12-14T02:38:06.766Z,6.96
2018-12-14T02:40:37.626Z,6.91
2018-12-14T02:43:08.359Z,6.88
2018-12-14T02:45:39.083Z,6.95
2018-12-14T02:48:10.235Z,6.88
2018-12-14T02:50:40.923Z,6.91
2018-12-14T02:53:11.579Z,6.97
2018-12-14T02:55:42.257Z,7.00
2018-12-14T02:58:12.906Z,6.95
2018-12-14T03:00:43.554Z,6.95
2018-12-14T03:03:15.625Z,6.86
2018-12-14T03:05:46.290Z,6.90
2018-12-14T03:08:17.906Z,6.92
2018-12-14T03:10:48.579Z,6.81
2018-12-14T03:13:19.899Z,6.88
2018-12-14T03:15:50.946Z,6.90
2018-12-14T03:18:22.607Z,6.72
2018-12-14T03:20:53.426Z,6.92
2018-12-14T03:23:24.125Z,6.97
2018-12-14T03:25:55.044Z,7.00
2018-12-14T03:28:25.680Z,7.02
2018-12-14T03:30:56.412Z,6.97
2018-12-14T03:33:27.068Z,6.96
2018-12-14T03:35:58.851Z,6.98
2018-12-14T03:38:29.571Z,6.94
2018-12-14T03:41:00.767Z,6.99
2018-12-14T03:43:32.976Z,6.95
2018-12-14T03:46:07.272Z,6.91
2018-12-14T03:48:38.039Z,6.81
2018-12-14T03:51:08.677Z,6.91
2018-12-14T03:53:39.360Z,6.80
2018-12-14T03:56:11.161Z,6.72
2018-12-14T03:58:41.971Z,6.79
2018-12-14T04:01:12.611Z,6.78
2018-12-14T04:03:43.381Z,6.84
2018-12-14T04:06:13.997Z,6.92
2018-12-14T04:08:45.747Z,7.09
2018-12-14T04:11:16.427Z,7.09
2018-12-14T04:13:49.054Z,7.08
2018-12-14T04:16:20.019Z,7.15
2018-12-14T04:18:50.692Z,7.18
2018-12-14T04:21:21.370Z,7.21
2018-12-14T04:23:52.067Z,7.21
2018-12-14T04:26:22.790Z,7.25
2018-12-14T04:28:53.410Z,7.21
2018-12-14T04:31:24.079Z,7.32
2018-12-14T04:33:54.690Z,7.36
2018-12-14T04:36:25.427Z,7.36
2018-12-14T04:38:58.210Z,7.34
2018-12-14T04:41:29.202Z,7.25
2018-12-14T04:44:00.505Z,7.26
2018-12-14T04:46:32.534Z,7.16
2018-12-14T04:49:07.160Z,7.14
2018-12-14T04:51:37.768Z,7.09
2018-12-14T04:54:08.484Z,7.10
2018-12-14T04:56:39.185Z,7.16
2018-12-14T04:59:10.148Z,7.18
2018-12-14T05:01:40.902Z,7.17
2018-12-14T05:04:11.710Z,7.19
2018-12-14T05:06:42.414Z,7.30
2018-12-14T05:09:13.122Z,7.40
2018-12-14T05:11:43.923Z,7.43
2018-12-14T05:14:14.815Z,7.37
2018-12-14T05:16:45.473Z,7.34
2018-12-14T05:19:16.155Z,7.32
2018-12-14T05:21:47.038Z,7.29
2018-12-14T05:24:18.197Z,7.31
2018-12-14T05:26:48.855Z,7.19
2018-12-14T05:29:19.584Z,7.18
2018-12-14T05:31:50.832Z,7.21
2018-12-14T05:34:22.555Z,7.32
2018-12-14T05:36:53.281Z,7.40
2018-12-14T05:39:23.945Z,7.37
2018-12-14T05:41:55.543Z,7.43
2018-12-14T05:44:26.226Z,7.52
2018-12-14T05:46:56.887Z,7.56
2018-12-14T05:49:28.138Z,7.59
2018-12-14T05:52:01.033Z,7.66
2018-12-14T05:54:35.849Z,7.58
2018-12-14T05:57:06.512Z,7.61
2018-12-14T05:59:37.250Z,7.62
2018-12-14T06:02:07.943Z,7.66
2018-12-14T06:04:41.579Z,7.66
2018-12-14T06:07:12.365Z,7.60
2018-12-14T06:09:43.071Z,7.53
2018-12-14T06:12:14.192Z,7.61
2018-12-14T06:14:45.199Z,7.64
2018-12-14T06:17:15.832Z,7.61
2018-12-14T06:19:46.513Z,7.75
2018-12-14T06:22:17.199Z,7.78
2018-12-14T06:24:47.952Z,7.83
2018-12-14T06:27:18.655Z,7.86
2018-12-14T06:29:49.364Z,7.89
2018-12-14T06:32:20.007Z,7.90
2018-12-14T06:34:50.710Z,7.84
2018-12-14T06:37:22.244Z,7.89
2018-12-14T06:39:53.140Z,7.82
2018-12-14T06:42:23.918Z,7.91
2018-12-14T06:44:54.719Z,7.85
2018-12-14T06:47:27.667Z,7.79
2018-12-14T06:49:58.415Z,7.71
2018-12-14T06:52:29.146Z,7.70
2018-12-14T06:54:59.904Z,7.64
2018-12-14T06:57:31.231Z,7.62
2018-12-14T07:00:06.924Z,7.62
2018-12-14T07:02:38.007Z,7.65
2018-12-14T07:05:08.842Z,7.57
2018-12-14T07:07:39.579Z,7.52
2018-12-14T07:10:11.307Z,7.47
2018-12-14T07:12:42.097Z,7.44
2018-12-14T07:15:12.774Z,7.50
2018-12-14T07:17:44.834Z,7.59
2018-12-14T07:20:15.570Z,7.65
2018-12-14T07:22:46.351Z,7.69
2018-12-14T07:25:17.916Z,7.66
2018-12-14T07:27:48.615Z,7.75
2018-12-14T07:30:20.145Z,7.76
2018-12-14T07:32:50.873Z,7.77
2018-12-14T07:35:21.977Z,7.83
2018-12-14T07:37:52.724Z,7.80
2018-12-14T07:40:24.109Z,7.89
2018-12-14T07:42:56.683Z,7.92
2018-12-14T07:45:28.570Z,8.00
2018-12-14T07:48:01.874Z,7.91
2018-12-14T07:50:32.883Z,7.88
2018-12-14T07:53:09.125Z,7.84
2018-12-14T07:55:38.326Z,7.88
2018-12-14T07:58:09.018Z,7.87
2018-12-14T08:00:39.829Z,7.83
2018-12-14T08:03:10.467Z,7.89
2018-12-14T08:05:42.351Z,7.97
2018-12-14T08:08:13.443Z,7.87
2018-12-14T08:10:44.180Z,7.90
2018-12-14T08:13:14.943Z,7.96
2018-12-14T08:15:45.649Z,8.03
2018-12-14T08:18:17.600Z,8.05
2018-12-14T08:20:48.343Z,8.07
2018-12-14T08:23:19.167Z,7.98
2018-12-14T08:25:49.901Z,7.93
2018-12-14T08:28:20.629Z,8.02
2018-12-14T08:30:53.209Z,8.00
2018-12-14T08:33:24.191Z,8.14
2018-12-14T08:35:55.567Z,8.27
2018-12-14T08:38:26.248Z,8.28
2018-12-14T08:40:56.930Z,8.26
2018-12-14T08:43:28.021Z,8.25
2018-12-14T08:45:58.737Z,8.30
2018-12-14T08:48:29.538Z,8.33
2018-12-14T08:51:00.232Z,8.40
2018-12-14T08:53:33.136Z,8.48
2018-12-14T08:56:05.604Z,8.66
2018-12-14T08:58:36.272Z,8.67
2018-12-14T09:01:07.006Z,8.64
2018-12-14T09:03:37.672Z,8.74
2018-12-14T09:06:09.495Z,8.75
2018-12-14T09:08:40.176Z,8.80
2018-12-14T09:11:10.843Z,8.86
2018-12-14T09:13:47.680Z,8.83
2018-12-14T09:16:14.210Z,8.85
2018-12-14T09:18:45.095Z,9.15
2018-12-14T09:21:15.799Z,9.36
2018-12-14T09:23:46.557Z,9.57
2018-12-14T09:26:17.428Z,9.61
2018-12-14T09:28:50.234Z,9.40
2018-12-14T09:31:21.578Z,9.20
2018-12-14T09:33:52.405Z,8.99
2018-12-14T09:36:23.252Z,9.01
2018-12-14T09:38:53.896Z,8.98
2018-12-14T09:41:24.766Z,9.20
2018-12-14T09:43:55.455Z,9.36
2018-12-14T09:46:26.395Z,9.41
2018-12-14T09:48:58.358Z,9.45
2018-12-14T09:51:29.017Z,9.58
2018-12-14T09:53:59.711Z,9.42
2018-12-14T09:56:30.660Z,9.47
2018-12-14T09:59:01.380Z,9.55
2018-12-14T10:01:32.578Z,9.68
2018-12-14T10:04:06.695Z,9.63
2018-12-14T10:06:37.780Z,9.79
2018-12-14T10:09:09.026Z,9.78
2018-12-14T10:11:40.250Z,9.91
2018-12-14T10:14:10.991Z,9.98
2018-12-14T10:16:41.668Z,10.10
2018-12-14T10:19:12.516Z,10.12
2018-12-14T10:21:43.666Z,10.20
2018-12-14T10:24:14.425Z,10.34
2018-12-14T10:26:45.130Z,10.89
2018-12-14T10:29:15.858Z,11.23
2018-12-14T10:31:46.562Z,11.64
2018-12-14T10:34:17.275Z,12.42
2018-12-14T10:36:47.999Z,12.76
2018-12-14T10:39:18.731Z,12.57
2018-12-14T10:41:49.630Z,12.87
2018-12-14T10:44:20.370Z,13.33
2018-12-14T10:46:51.302Z,13.66
2018-12-14T10:49:22.361Z,13.58
2018-12-14T10:51:53.399Z,13.86
2018-12-14T10:54:24.337Z,14.03
2018-12-14T10:56:55.360Z,13.74
2018-12-14T10:59:26.599Z,13.33
2018-12-14T11:01:58.970Z,13.04
2018-12-14T11:04:29.887Z,13.02
2018-12-14T11:07:00.824Z,12.50
2018-12-14T11:09:32.806Z,12.45
2018-12-14T11:12:05.339Z,12.43
2018-12-14T11:14:36.015Z,12.13
2018-12-14T11:17:09.231Z,12.41
2018-12-14T11:19:39.858Z,12.26
2018-12-14T11:22:10.567Z,12.33
2018-12-14T11:24:41.215Z,12.26
2018-12-14T11:27:13.334Z,12.40
2018-12-14T11:29:44.012Z,13.03
2018-12-14T11:32:16.010Z,12.92
2018-12-14T11:34:46.730Z,13.26
2018-12-14T11:37:17.470Z,12.93
2018-12-14T11:39:48.325Z,12.92
2018-12-14T11:42:18.963Z,13.25
2018-12-14T11:44:49.662Z,13.23
2018-12-14T11:47:20.885Z,12.92
2018-12-14T11:49:52.444Z,13.66
2018-12-14T11:52:23.175Z,14.62
2018-12-14T11:54:53.860Z,14.38
2018-12-14T11:57:24.546Z,14.40
2018-12-14T11:59:55.422Z,14.30
2018-12-14T12:02:26.148Z,13.99
2018-12-14T12:04:56.814Z,13.83
2018-12-14T12:07:27.586Z,13.66
2018-12-14T12:09:58.244Z,13.74
2018-12-14T12:12:28.974Z,13.97
2018-12-14T12:14:59.720Z,14.15
2018-12-14T12:17:30.406Z,13.96
2018-12-14T12:20:05.354Z,14.40
2018-12-14T12:22:36.019Z,14.45
2018-12-14T12:25:08.343Z,14.52
2018-12-14T12:27:39.011Z,15.29
2018-12-14T12:30:10.794Z,15.33
2018-12-14T12:32:41.513Z,15.13
2018-12-14T12:35:12.239Z,15.33
2018-12-14T12:37:42.907Z,14.87
2018-12-14T12:40:14.387Z,14.62
2018-12-14T12:42:45.141Z,15.11
2018-12-14T12:45:15.899Z,15.34
2018-12-14T12:47:46.615Z,16.27
2018-12-14T12:50:17.340Z,18.07
2018-12-14T12:52:47.976Z,19.09
2018-12-14T12:55:18.682Z,19.51
2018-12-14T12:57:49.320Z,19.38
2018-12-14T13:00:20.051Z,19.32
2018-12-14T13:02:50.727Z,18.87
2018-12-14T13:05:21.485Z,18.00
2018-12-14T13:07:53.262Z,18.04
2018-12-14T13:10:23.942Z,17.74
2018-12-14T13:12:54.650Z,17.25
2018-12-14T13:15:25.451Z,16.93
2018-12-14T13:17:56.343Z,16.60
2018-12-14T13:20:27.048Z,16.65
2018-12-14T13:22:57.906Z,16.61
2018-12-14T13:25:30.356Z,16.58
2018-12-14T13:28:05.227Z,16.25
2018-12-14T13:30:36.475Z,16.39
2018-12-14T13:33:08.139Z,16.10
2018-12-14T13:35:38.902Z,16.11
2018-12-14T13:38:09.895Z,15.93
2018-12-14T13:40:40.567Z,15.81
2018-12-14T13:43:11.279Z,15.80
2018-12-14T13:45:42.046Z,15.53
2018-12-14T13:48:12.692Z,15.43
2018-12-14T13:50:44.788Z,15.64
2018-12-14T13:53:18.403Z,15.87
2018-12-14T13:55:49.083Z,15.68
2018-12-14T13:58:19.782Z,15.65
2018-12-14T14:00:50.614Z,15.57
2018-12-14T14:03:21.377Z,15.62
2018-12-14T14:05:52.011Z,15.45
2018-12-14T14:08:22.749Z,15.45
2018-12-14T14:10:53.364Z,14.99
2018-12-14T14:13:24.052Z,15.27
2018-12-14T14:15:55.935Z,14.98
2018-12-14T14:18:26.894Z,15.07
2018-12-14T14:20:57.598Z,14.80
2018-12-14T14:23:28.506Z,14.70
2018-12-14T14:26:01.054Z,14.73
2018-12-14T14:28:32.716Z,14.62
2018-12-14T14:31:05.227Z,14.52
2018-12-14T14:33:35.843Z,14.29
2018-12-14T14:36:06.626Z,14.25
2018-12-14T14:38:37.329Z,14.19
2018-12-14T14:41:08.284Z,14.10
2018-12-14T14:43:39.565Z,14.00
2018-12-14T14:46:10.281Z,13.97
2018-12-14T14:48:40.987Z,13.97
2018-12-14T14:51:11.924Z,14.00
2018-12-14T14:53:42.600Z,13.98
2018-12-14T14:56:13.320Z,13.77
2018-12-14T14:58:44.049Z,13.72
2018-12-14T15:01:15.170Z,13.65
2018-12-14T15:03:45.885Z,13.63
2018-12-14T15:06:16.540Z,13.71
2018-12-14T15:08:47.204Z,13.74
2018-12-14T15:11:17.917Z,13.94
2018-12-14T15:13:49.680Z,14.02
2018-12-14T15:16:20.517Z,13.85
2018-12-14T15:18:51.229Z,13.88
2018-12-14T15:21:22.630Z,13.82
2018-12-14T15:23:53.399Z,13.76
2018-12-14T15:26:24.118Z,13.95
2018-12-14T15:28:54.795Z,13.89
2018-12-14T15:31:25.729Z,13.73
2018-12-14T15:33:56.446Z,13.52
2018-12-14T15:36:27.290Z,13.46
2018-12-14T15:38:57.900Z,13.35
2018-12-14T15:41:28.579Z,13.43
2018-12-14T15:43:59.296Z,13.44
2018-12-14T15:46:29.995Z,13.53
2018-12-14T15:49:00.841Z,13.45
2018-12-14T15:51:33.609Z,13.42
2018-12-14T15:54:04.990Z,13.45
2018-12-14T15:56:35.661Z,13.47
2018-12-14T15:59:08.162Z,13.46
2018-12-14T16:01:38.976Z,13.56
2018-12-14T16:04:09.731Z,13.45
2018-12-14T16:06:40.423Z,13.41
2018-12-14T16:09:11.106Z,13.41
2018-12-14T16:11:41.789Z,13.52
2018-12-14T16:14:12.683Z,13.53
2018-12-14T16:16:43.468Z,13.53
2018-12-14T16:19:14.243Z,13.58
2018-12-14T16:21:45.495Z,13.51
2018-12-14T16:24:16.211Z,13.44
2018-12-14T16:26:46.974Z,13.31
2018-12-14T16:29:17.662Z,13.24
2018-12-14T16:31:48.315Z,13.20
2018-12-14T16:34:19.108Z,13.23
2018-12-14T16:36:49.758Z,13.20
2018-12-14T16:39:20.416Z,13.12
2018-12-14T16:41:51.079Z,13.17
2018-12-14T16:44:21.741Z,13.21
2018-12-14T16:46:52.410Z,13.14
2018-12-14T16:49:23.109Z,13.04
2018-12-14T16:51:53.850Z,12.97
2018-12-14T16:54:24.562Z,12.93
2018-12-14T16:56:55.811Z,12.89
2018-12-14T16:59:26.514Z,12.91
2018-12-14T17:01:57.270Z,12.84
2018-12-14T17:04:27.908Z,12.89
2018-12-14T17:06:58.636Z,12.90
2018-12-14T17:09:29.413Z,12.84
2018-12-14T17:12:00.247Z,12.85
2018-12-14T17:14:33.089Z,12.81
2018-12-14T17:17:07.209Z,12.79
2018-12-14T17:19:37.870Z,12.76
2018-12-14T17:22:08.603Z,12.73
2018-12-14T17:24:39.292Z,12.68
2018-12-14T17:27:10.137Z,12.71
2018-12-14T17:29:40.814Z,12.67
2018-12-14T17:32:11.504Z,12.68
2018-12-14T17:34:42.218Z,12.64
2018-12-14T17:37:15.587Z,12.65
2018-12-14T17:39:46.988Z,12.62
2018-12-14T17:42:19.852Z,12.61
2018-12-14T17:44:50.602Z,12.50
2018-12-14T17:47:21.286Z,12.44
2018-12-14T17:49:52.403Z,12.49
2018-12-14T17:52:23.047Z,12.39
2018-12-14T17:54:54.233Z,12.50
2018-12-14T17:57:24.865Z,12.49
2018-12-14T17:59:56.021Z,12.49
2018-12-14T18:02:26.707Z,12.54
2018-12-14T18:04:59.635Z,12.54
2018-12-14T18:07:30.339Z,12.50
2018-12-14T18:10:06.451Z,12.55
2018-12-14T18:12:37.183Z,12.49
2018-12-14T18:15:09.318Z,12.53
2018-12-14T18:17:39.948Z,12.50
2018-12-14T18:20:11.234Z,12.46
2018-12-14T18:22:43.109Z,12.57
2018-12-14T18:25:14.575Z,12.43
2018-12-14T18:27:45.404Z,12.36
2018-12-14T18:30:16.126Z,12.35
2018-12-14T18:32:46.831Z,12.29
2018-12-14T18:35:17.481Z,12.19
2018-12-14T18:37:48.327Z,12.16
2018-12-14T18:40:19.183Z,12.18
2018-12-14T18:42:49.974Z,12.20
2018-12-14T18:45:21.109Z,12.17
2018-12-14T18:47:51.837Z,12.14
2018-12-14T18:50:22.558Z,12.12
2018-12-14T18:52:53.307Z,12.16
2018-12-14T18:55:24.015Z,12.20
2018-12-14T18:57:54.762Z,12.28
2018-12-14T19:00:25.923Z,12.26
2018-12-14T19:02:56.686Z,12.27
2018-12-14T19:05:27.355Z,12.24
2018-12-14T19:07:58.049Z,12.28
2018-12-14T19:10:30.188Z,12.18
2018-12-14T19:13:00.959Z,12.13
2018-12-14T19:15:32.156Z,12.18
2018-12-14T19:18:04.343Z,12.13
2018-12-14T19:20:35.120Z,12.09
2018-12-14T19:23:05.827Z,12.12
2018-12-14T19:25:36.528Z,12.07
2018-12-14T19:28:07.584Z,12.13
2018-12-14T19:30:38.316Z,12.16
2018-12-14T19:33:09.294Z,12.14
2018-12-14T19:35:40.144Z,12.09
2018-12-14T19:38:10.857Z,12.09
2018-12-14T19:40:41.772Z,12.10
2018-12-14T19:43:13.753Z,12.05
2018-12-14T19:45:44.427Z,12.08
2018-12-14T19:48:15.627Z,12.12
2018-12-14T19:50:46.376Z,12.05
2018-12-14T19:53:17.132Z,12.07
2018-12-14T19:55:48.134Z,12.12
2018-12-14T19:58:18.915Z,12.05
2018-12-14T20:00:49.631Z,12.08
2018-12-14T20:03:20.372Z,12.04
2018-12-14T20:05:51.007Z,11.98
2018-12-14T20:08:22.046Z,11.98
2018-12-14T20:10:58.922Z,12.01
2018-12-14T20:13:31.018Z,12.01
2018-12-14T20:16:12.598Z,12.07
2018-12-14T20:18:39.242Z,12.09
2018-12-14T20:21:09.916Z,12.06
2018-12-14T20:23:41.585Z,11.94
2018-12-14T20:26:12.249Z,11.92
2018-12-14T20:28:43.015Z,12.08
2018-12-14T20:31:13.749Z,12.03
2018-12-14T20:33:44.608Z,11.97
2018-12-14T20:36:15.380Z,11.83
2018-12-14T20:38:46.167Z,11.89
2018-12-14T20:41:17.737Z,11.95
2018-12-14T20:43:48.679Z,11.87
2018-12-14T20:46:19.606Z,11.87
2018-12-14T20:48:50.320Z,11.88
2018-12-14T20:51:21.319Z,11.85
2018-12-14T20:53:51.975Z,11.86
2018-12-14T20:56:22.756Z,11.87
2018-12-14T20:58:53.558Z,11.86
2018-12-14T21:01:25.096Z,11.73
2018-12-14T21:03:57.756Z,11.77
2018-12-14T21:06:28.693Z,11.86
2018-12-14T21:08:59.386Z,11.82
2018-12-14T21:11:30.058Z,11.83
2018-12-14T21:14:00.818Z,11.81
2018-12-14T21:16:34.722Z,11.80
2018-12-14T21:19:05.435Z,11.80
2018-12-14T21:21:36.549Z,11.79
2018-12-14T21:24:07.293Z,11.87
2018-12-14T21:26:37.936Z,11.83
2018-12-14T21:29:09.033Z,11.88
2018-12-14T21:31:39.774Z,11.81
2018-12-14T21:34:10.664Z,11.79
2018-12-14T21:36:41.419Z,11.77
2018-12-14T21:39:12.325Z,11.88
2018-12-14T21:41:43.486Z,11.87
2018-12-14T21:44:14.199Z,11.79
2018-12-14T21:46:44.964Z,11.86
2018-12-14T21:49:15.925Z,11.86
2018-12-14T21:51:47.263Z,12.00
2018-12-14T21:54:20.003Z,12.01
2018-12-14T21:56:50.671Z,12.05
2018-12-14T21:59:21.393Z,11.82
2018-12-14T22:01:52.096Z,11.71
2018-12-14T22:04:23.683Z,11.64
2018-12-14T22:06:54.553Z,11.64
2018-12-14T22:09:25.229Z,11.64
2018-12-14T22:11:56.091Z,11.65
2018-12-14T22:14:26.834Z,11.67
2018-12-14T22:16:57.658Z,11.63
2018-12-14T22:19:28.467Z,11.61
2018-12-14T22:21:59.147Z,11.66
2018-12-14T22:24:29.871Z,11.69
2018-12-14T22:27:00.540Z,11.71
2018-12-14T22:29:33.955Z,11.75
2018-12-14T22:32:08.314Z,11.76
2018-12-14T22:34:39.007Z,11.78
2018-12-14T22:37:10.912Z,11.85
2018-12-14T22:39:41.932Z,11.89
2018-12-14T22:42:12.669Z,11.93
2018-12-14T22:44:43.339Z,11.97
2018-12-14T22:47:14.084Z,12.03
2018-12-14T22:49:45.765Z,12.09
2018-12-14T22:52:17.547Z,12.08
2018-12-14T22:54:48.395Z,12.08
2018-12-14T22:57:19.057Z,12.19
2018-12-14T22:59:50.351Z,12.33
2018-12-14T23:02:21.063Z,12.36
2018-12-14T23:04:51.712Z,12.41
2018-12-14T23:07:22.434Z,12.48
2018-12-14T23:09:53.227Z,12.53
2018-12-14T23:12:25.409Z,12.60
2018-12-14T23:14:56.132Z,12.56
2018-12-14T23:17:27.416Z,12.71
2018-12-14T23:19:58.671Z,12.72
2018-12-14T23:22:29.802Z,12.67
2018-12-14T23:25:00.510Z,12.63
2018-12-14T23:27:34.446Z,12.69
2018-12-14T23:30:09.870Z,12.64
2018-12-14T23:32:40.526Z,12.71
2018-12-14T23:35:13.098Z,12.72
2018-12-14T23:37:43.807Z,12.72
2018-12-14T23:40:14.493Z,12.66
2018-12-14T23:42:45.604Z,12.73
2018-12-14T23:45:16.309Z,12.68
2018-12-14T23:47:47.582Z,12.64
2018-12-14T23:50:18.884Z,12.67
2018-12-14T23:52:49.623Z,12.75
2018-12-14T23:55:21.891Z,12.72
2018-12-14T23:57:52.575Z,12.73
